Time;durP1;ratioP1;P1;durP2;ratioP2;P2;SDS_P1;SDS_P2;PMS_P1;PMS_P2;Temp;Humidity;BMP_temperature;BMP_pressure;BME280_temperature;BME280_humidity;BME280_pressure;Samples;Min_cycle;Max_cycle;Signal;HPM_P1;HPM_P2
2021/04/12 00:00:36;;;;;;;0.40;0.40;;;;;;;2.57;92.54;100819.63;4993474;28;20472;-74
2021/04/12 00:03:12;;;;;;;4.50;0.57;;;;;;;2.55;92.59;100821.78;4993341;28;20503;-74
2021/04/12 00:05:50;;;;;;;0.70;0.70;;;;;;;2.53;92.53;100824.72;4993254;28;20469;-74
2021/04/12 00:08:52;;;;;;;1.37;0.60;;;;;;;2.56;92.40;100820.69;4993409;28;20408;-75
2021/04/12 00:11:41;;;;;;;0.70;0.40;;;;;;;2.57;92.34;100811.53;4989226;28;20436;-74
2021/04/12 00:14:17;;;;;;;0.23;0.23;;;;;;;2.58;92.88;100805.91;4993070;28;20412;-74
2021/04/12 00:16:52;;;;;;;0.50;0.50;;;;;;;2.57;93.00;100814.25;4993326;28;20491;-74
2021/04/12 00:19:28;;;;;;;0.23;0.23;;;;;;;2.55;93.21;100816.38;4993163;28;20458;-74
2021/04/12 00:22:05;;;;;;;1.43;1.33;;;;;;;2.55;93.34;100816.38;4993598;28;20412;-74
2021/04/12 00:24:44;;;;;;;0.40;0.40;;;;;;;2.53;92.87;100826.59;4993181;28;20173;-74
2021/04/12 00:27:19;;;;;;;0.50;0.50;;;;;;;2.53;92.69;100829.28;4993008;28;20420;-74
2021/04/12 00:29:54;;;;;;;2.70;0.60;;;;;;;2.53;93.25;100834.69;4993112;28;20430;-73
2021/04/12 00:32:34;;;;;;;0.70;0.70;;;;;;;2.52;93.14;100838.44;4993077;28;20422;-74
2021/04/12 00:35:23;;;;;;;0.27;0.10;;;;;;;2.47;92.70;100835.69;4993240;28;20880;-73
2021/04/12 00:38:27;;;;;;;0.40;0.40;;;;;;;2.45;93.04;100837.78;4992869;28;20415;-74
2021/04/12 00:41:05;;;;;;;0.37;0.37;;;;;;;2.43;92.56;100839.94;5007916;28;20968;-74
2021/04/12 00:43:52;;;;;;;1.07;0.40;;;;;;;2.42;92.31;100841.81;4993647;28;20420;-74
2021/04/12 00:46:35;;;;;;;0.30;0.30;;;;;;;2.38;92.45;100844.19;4973832;28;20743;-74
2021/04/12 00:49:28;;;;;;;0.43;0.30;;;;;;;2.37;92.52;100847.13;4973570;28;20516;-74
2021/04/12 00:52:18;;;;;;;0.20;0.20;;;;;;;2.35;92.84;100850.09;4973517;28;20468;-74
2021/04/12 00:55:30;;;;;;;0.37;0.30;;;;;;;2.32;92.07;100855.97;4973433;28;20421;-74
2021/04/12 00:58:19;;;;;;;0.17;0.17;;;;;;;2.32;91.77;100847.06;4966191;28;20276;-74
2021/04/12 01:00:56;;;;;;;0.00;0.00;;;;;;;2.29;91.86;100845.66;4973285;28;20469;-74
2021/04/12 01:03:29;;;;;;;6.07;0.80;;;;;;;2.26;91.99;100856.13;4973206;28;20420;-74
2021/04/12 01:06:06;;;;;;;0.20;0.10;;;;;;;2.24;91.71;100869.03;4973760;28;20481;-74
2021/04/12 01:08:50;;;;;;;5.00;0.60;;;;;;;2.23;92.09;100867.41;4973411;28;20405;-74
2021/04/12 01:11:15;;;;;;;1.40;0.63;;;;;;;2.19;91.94;100867.09;4972558;28;20982;-74
2021/04/12 01:14:01;;;;;;;0.33;0.20;;;;;;;2.18;92.12;100872.72;4972700;28;20537;-74
2021/04/12 01:16:40;;;;;;;0.40;0.40;;;;;;;2.16;91.88;100882.91;4973366;28;20177;-74
2021/04/12 01:19:19;;;;;;;1.63;1.00;;;;;;;2.14;92.10;100874.25;4973024;28;20425;-74
2021/04/12 01:22:03;;;;;;;0.80;0.80;;;;;;;2.14;92.55;100876.94;4973012;28;20410;-73
2021/04/12 01:24:52;;;;;;;0.93;0.83;;;;;;;2.12;92.92;100892.56;4981842;28;20912;-74
2021/04/12 01:27:49;;;;;;;0.03;0.03;;;;;;;2.09;92.54;100888.47;4992240;28;20421;-74
2021/04/12 01:30:51;;;;;;;0.27;0.23;;;;;;;2.08;93.09;100887.66;4992347;28;20420;-74
2021/04/12 01:33:49;;;;;;;1.07;0.40;;;;;;;2.05;93.05;100884.66;4991768;28;20420;-74
2021/04/12 01:36:37;;;;;;;0.53;0.53;;;;;;;2.02;93.58;100899.41;4969563;28;20436;-74
2021/04/12 01:39:12;;;;;;;0.87;0.53;;;;;;;2.02;93.71;100888.63;4991077;28;20511;-75
2021/04/12 01:42:01;;;;;;;0.13;0.13;;;;;;;2.00;93.81;100890.75;4992366;28;20803;-74
2021/04/12 01:44:38;;;;;;;0.83;0.83;;;;;;;1.99;93.62;100893.69;4992302;28;20824;-73
2021/04/12 01:47:12;;;;;;;0.30;0.30;;;;;;;1.97;93.72;100890.41;4991942;28;20934;-74
2021/04/12 01:50:15;;;;;;;5.10;1.13;;;;;;;1.94;94.09;100889.03;4991783;28;20931;-74
2021/04/12 01:53:14;;;;;;;0.30;0.30;;;;;;;1.94;94.08;100907.06;4991584;28;20884;-74
2021/04/12 01:55:56;;;;;;;1.20;0.97;;;;;;;1.92;94.16;100906.50;4991766;28;20420;-73
2021/04/12 01:58:32;;;;;;;0.53;0.50;;;;;;;1.91;94.07;100915.66;4991827;28;20421;-74
2021/04/12 02:01:08;;;;;;;0.27;0.27;;;;;;;1.87;93.72;100920.69;4991704;28;20876;-74
2021/04/12 02:03:48;;;;;;;0.70;0.70;;;;;;;1.87;93.86;100922.56;4991552;28;20791;-74
2021/04/12 02:06:37;;;;;;;0.93;0.93;;;;;;;1.86;94.19;100926.31;4991561;28;20862;-74
2021/04/12 02:09:20;;;;;;;1.70;1.60;;;;;;;1.85;93.80;100935.47;4991727;28;20455;-74
2021/04/12 02:12:22;;;;;;;0.20;0.20;;;;;;;1.83;93.75;100927.63;4991445;28;20422;-73
2021/04/12 02:15:00;;;;;;;0.60;0.60;;;;;;;1.83;93.92;100933.00;4991386;28;20439;-74
2021/04/12 02:17:42;;;;;;;2.30;1.83;;;;;;;1.79;94.18;100938.06;4990385;28;20420;-74
2021/04/12 02:20:24;;;;;;;0.50;0.40;;;;;;;1.80;94.03;100944.28;4991565;28;20471;-73
2021/04/12 02:23:27;;;;;;;0.93;0.37;;;;;;;1.81;93.66;100953.16;4991365;28;20416;-74
2021/04/12 02:26:08;;;;;;;0.87;0.87;;;;;;;1.75;93.80;100955.78;4990190;28;20909;-73
2021/04/12 02:28:55;;;;;;;0.20;0.20;;;;;;;1.73;93.66;100949.78;4991705;28;20466;-74
2021/04/12 02:31:40;;;;;;;4.13;0.83;;;;;;;1.73;93.65;100957.06;4991008;28;20424;-74
2021/04/12 02:34:24;;;;;;;0.97;0.53;;;;;;;1.69;93.31;100948.63;4991173;28;20503;-74
2021/04/12 02:37:08;;;;;;;1.30;0.40;;;;;;;1.71;93.27;100954.59;4991353;28;20516;-74
2021/04/12 02:39:50;;;;;;;0.20;0.20;;;;;;;1.68;93.35;100965.88;4991058;28;20449;-73
2021/04/12 02:42:42;;;;;;;0.20;0.20;;;;;;;1.66;93.80;100962.59;4991152;28;21100;-73
2021/04/12 02:45:29;;;;;;;0.30;0.30;;;;;;;1.64;93.65;100967.41;4991278;28;20755;-74
2021/04/12 02:48:00;;;;;;;3.40;1.03;;;;;;;1.63;93.12;100973.84;4991415;28;20417;-74
2021/04/12 02:50:32;;;;;;;0.47;0.47;;;;;;;1.63;93.35;100973.84;4991369;28;20460;-74
2021/04/12 02:53:12;;;;;;;0.20;0.20;;;;;;;1.61;93.11;100977.84;4990936;28;20423;-74
2021/04/12 02:56:16;;;;;;;0.40;0.40;;;;;;;1.58;93.33;100973.72;4989997;28;20432;-74
2021/04/12 02:59:03;;;;;;;0.27;0.27;;;;;;;1.56;93.32;100973.16;4989897;28;20432;-74
2021/04/12 03:01:50;;;;;;;0.07;0.07;;;;;;;1.57;93.83;100979.34;4991407;28;20416;-75
2021/04/12 03:04:18;;;;;;;0.20;0.20;;;;;;;1.51;93.84;100983.84;4991022;28;20413;-75
2021/04/12 03:07:35;;;;;;;0.10;0.10;;;;;;;1.51;94.02;100983.00;4991145;28;20832;-73
2021/04/12 03:10:24;;;;;;;0.00;0.00;;;;;;;1.48;93.98;100971.66;4973703;28;20447;-73
2021/04/12 03:13:00;;;;;;;0.80;0.80;;;;;;;1.49;93.57;100962.53;4990636;28;20498;-74
2021/04/12 03:15:40;;;;;;;0.60;0.60;;;;;;;1.48;93.91;100971.66;4991268;28;20421;-73
2021/04/12 03:18:28;;;;;;;0.00;0.00;;;;;;;1.45;93.94;100976.72;4990974;28;20793;-73
2021/04/12 03:21:23;;;;;;;0.80;0.80;;;;;;;1.45;94.29;100974.03;4991005;28;20456;-74
2021/04/12 03:23:58;;;;;;;0.20;0.20;;;;;;;1.42;94.05;100969.09;4990894;28;20424;-74
2021/04/12 03:26:35;;;;;;;0.20;0.10;;;;;;;1.40;94.23;100979.28;4990842;28;20453;-74
2021/04/12 03:29:15;;;;;;;0.60;0.60;;;;;;;1.39;94.26;100980.34;4990740;28;20461;-74
2021/04/12 03:32:10;;;;;;;0.33;0.33;;;;;;;1.31;94.58;100983.41;4990501;28;20476;-73
2021/04/12 03:34:54;;;;;;;0.30;0.30;;;;;;;1.28;94.51;100989.25;4989750;28;20432;-74
2021/04/12 03:37:57;;;;;;;0.30;0.30;;;;;;;1.25;94.92;100995.94;4994768;28;20741;-74
2021/04/12 03:40:29;;;;;;;0.10;0.10;;;;;;;1.23;94.85;101005.31;4994190;28;20472;-74
2021/04/12 03:43:22;;;;;;;0.87;0.87;;;;;;;1.18;94.54;101011.41;4994066;28;20416;-73
2021/04/12 03:45:59;;;;;;;1.07;1.00;;;;;;;1.15;94.69;101017.22;4994538;28;20901;-73
2021/04/12 03:48:55;;;;;;;0.20;0.20;;;;;;;1.17;94.82;101024.03;4994022;28;20412;-74
2021/04/12 03:51:43;;;;;;;0.00;0.00;;;;;;;1.16;95.08;101013.50;4993796;28;20417;-73
2021/04/12 03:54:28;;;;;;;0.57;0.57;;;;;;;1.14;95.01;101024.47;4993860;28;20428;-74
2021/04/12 03:57:03;;;;;;;0.30;0.20;;;;;;;1.13;95.29;101022.03;4994066;28;20768;-74
2021/04/12 03:59:44;;;;;;;1.00;1.00;;;;;;;1.14;94.87;101037.94;4992620;28;20467;-74
2021/04/12 04:02:36;;;;;;;0.87;0.87;;;;;;;1.15;95.05;101031.50;4994092;28;20417;-74
2021/04/12 04:05:03;;;;;;;0.80;0.63;;;;;;;1.14;95.03;101048.69;4993725;28;20474;-74
2021/04/12 04:07:41;;;;;;;0.53;0.53;;;;;;;1.15;94.61;101042.25;4993941;28;20421;-73
2021/04/12 04:10:28;;;;;;;1.07;0.70;;;;;;;1.14;94.64;101043.31;4993571;28;20421;-74
2021/04/12 04:13:12;;;;;;;0.27;0.27;;;;;;;1.13;94.63;101041.69;4993505;28;20743;-75
2021/04/12 04:16:05;;;;;;;0.57;0.57;;;;;;;1.15;94.44;101038.75;4993695;28;20422;-74
2021/04/12 04:18:30;;;;;;;0.43;0.43;;;;;;;1.12;94.82;101041.91;4993683;28;20495;-74
2021/04/12 04:21:17;;;;;;;0.60;0.37;;;;;;;1.10;95.23;101046.72;4992326;28;21082;-74
2021/04/12 04:23:58;;;;;;;1.40;1.30;;;;;;;1.09;94.94;101045.09;4993266;28;20184;-74
2021/04/12 04:26:48;;;;;;;0.17;0.17;;;;;;;1.08;95.60;101048.81;4993681;28;20415;-74
2021/04/12 04:29:19;;;;;;;0.80;0.57;;;;;;;1.04;95.44;101043.09;4993438;28;20408;-74
2021/04/12 04:32:21;;;;;;;0.20;0.20;;;;;;;1.05;95.72;101036.66;4991928;28;20831;-73
2021/04/12 04:35:02;;;;;;;1.13;1.03;;;;;;;1.05;95.34;101041.22;4993324;28;20474;-74
2021/04/12 04:37:58;;;;;;;0.00;0.00;;;;;;;1.03;95.59;101046.03;4993434;28;20421;-74
2021/04/12 04:40:50;;;;;;;0.17;0.17;;;;;;;1.00;95.67;101041.91;4991860;28;20595;-74
2021/04/12 04:43:39;;;;;;;2.33;1.47;;;;;;;0.99;95.84;101058.28;4992754;28;20416;-75
2021/04/12 04:46:28;;;;;;;0.90;0.80;;;;;;;0.98;95.80;101059.34;4992068;28;20445;-73
2021/04/12 04:49:12;;;;;;;0.10;0.10;;;;;;;0.97;95.60;101063.91;4992766;28;20931;-76
2021/04/12 04:51:44;;;;;;;0.30;0.30;;;;;;;0.98;95.48;101064.72;4991510;28;21001;-73
2021/04/12 04:54:32;;;;;;;0.30;0.30;;;;;;;0.97;95.87;101071.97;4993113;28;20416;-74
2021/04/12 04:57:16;;;;;;;0.77;0.77;;;;;;;0.96;95.38;101062.25;4992711;28;20447;-74
2021/04/12 04:59:55;;;;;;;1.13;0.40;;;;;;;0.96;95.66;101066.81;4992892;28;21021;-74
2021/04/12 05:02:45;;;;;;;1.03;1.03;;;;;;;0.98;95.82;101062.84;4992629;28;20420;-74
2021/04/12 05:05:37;;;;;;;0.33;0.13;;;;;;;0.97;96.04;101055.84;4992754;28;20416;-73
2021/04/12 05:08:27;;;;;;;0.00;0.00;;;;;;;0.97;95.97;101066.59;5016711;28;20954;-75
2021/04/12 05:11:45;;;;;;;0.00;0.00;;;;;;;1.00;95.87;101078.75;4992336;28;20708;-74
2021/04/12 05:14:32;;;;;;;0.87;0.87;;;;;;;1.00;96.43;101082.25;4951150;29;20434;-74
2021/04/12 05:17:21;;;;;;;0.10;0.10;;;;;;;1.02;96.41;101084.75;4951113;29;20457;-74
2021/04/12 05:20:24;;;;;;;1.13;1.10;;;;;;;1.05;95.79;101092.34;4987032;28;20475;-74
2021/04/12 05:23:20;;;;;;;0.00;0.00;;;;;;;1.07;95.99;101099.13;4992321;28;20452;-72
2021/04/12 05:26:00;;;;;;;0.40;0.40;;;;;;;1.09;96.33;101102.41;4992348;28;20416;-73
2021/04/12 05:28:37;;;;;;;0.20;0.20;;;;;;;1.11;95.90;101103.00;4992008;28;20405;-72
2021/04/12 05:31:24;;;;;;;0.10;0.10;;;;;;;1.12;95.66;101110.00;4992191;28;20439;-73
2021/04/12 05:34:07;;;;;;;0.43;0.13;;;;;;;1.16;95.69;101113.06;4992065;28;20412;-73
2021/04/12 05:36:54;;;;;;;0.10;0.10;;;;;;;1.17;95.49;101118.22;4992034;28;20440;-74
2021/04/12 05:39:53;;;;;;;0.37;0.37;;;;;;;1.25;95.62;101129.69;4991241;28;20491;-73
2021/04/12 05:42:36;;;;;;;5.90;1.10;;;;;;;1.24;95.30;101133.44;4972799;28;20409;-73
2021/04/12 05:45:10;;;;;;;0.20;0.20;;;;;;;1.27;95.46;101138.34;4990965;28;20463;-72
2021/04/12 05:47:47;;;;;;;1.27;1.17;;;;;;;1.31;95.02;101136.84;4991705;28;20456;-73
2021/04/12 05:50:48;;;;;;;0.13;0.13;;;;;;;1.32;95.03;101141.16;4991354;28;20463;-73
2021/04/12 05:53:32;;;;;;;0.10;0.10;;;;;;;1.31;94.57;101150.28;4991293;28;20516;-73
2021/04/12 05:56:15;;;;;;;0.63;0.63;;;;;;;1.35;94.74;101159.53;4991175;28;20905;-73
2021/04/12 05:58:51;;;;;;;0.67;0.67;;;;;;;1.37;94.74;101158.25;4991430;28;20417;-73
2021/04/12 06:01:39;;;;;;;0.47;0.27;;;;;;;1.40;94.61;101160.47;4991374;28;20990;-73
2021/04/12 06:04:38;;;;;;;1.60;1.50;;;;;;;1.44;94.42;101166.19;4990964;28;20435;-72
2021/04/12 06:07:35;;;;;;;0.57;0.37;;;;;;;1.46;94.45;101167.63;4991387;28;20463;-75
2021/04/12 06:10:12;;;;;;;0.30;0.30;;;;;;;1.48;94.37;101175.47;4991156;28;20428;-73
2021/04/12 06:13:15;;;;;;;1.83;1.57;;;;;;;1.54;94.75;101188.00;4991236;28;20420;-74
2021/04/12 06:15:58;;;;;;;0.20;0.20;;;;;;;1.60;94.29;101180.88;4991264;28;20440;-73
2021/04/12 06:18:42;;;;;;;0.80;0.80;;;;;;;1.64;94.31;101177.47;4990960;28;20416;-74
2021/04/12 06:21:36;;;;;;;0.37;0.37;;;;;;;1.69;94.21;101191.03;4989610;28;20476;-73
2021/04/12 06:24:07;;;;;;;1.07;1.07;;;;;;;1.70;93.78;101184.59;4991741;28;20437;-75
2021/04/12 06:26:44;;;;;;;0.23;0.23;;;;;;;1.70;93.66;101183.78;4991877;28;20915;-74
2021/04/12 06:29:23;;;;;;;0.00;0.00;;;;;;;1.73;93.44;101186.00;4992035;28;20562;-73
2021/04/12 06:31:48;;;;;;;0.83;0.83;;;;;;;1.71;93.06;101188.09;4992206;28;20440;-80
2021/04/12 06:34:42;;;;;;;0.73;0.20;;;;;;;1.67;92.96;101179.69;4991779;28;20459;-74
2021/04/12 06:37:18;;;;;;;0.23;0.23;;;;;;;1.68;92.90;101180.50;4991723;28;20178;-74
2021/04/12 06:39:52;;;;;;;0.10;0.10;;;;;;;1.69;93.08;101188.34;4991778;28;20722;-74
2021/04/12 06:42:30;;;;;;;0.67;0.67;;;;;;;1.69;92.81;101196.44;4991517;28;20495;-82
2021/04/12 06:45:31;;;;;;;0.03;0.00;;;;;;;1.71;92.13;101198.88;4991346;28;20420;-73
2021/04/12 06:47:57;;;;;;;0.43;0.43;;;;;;;1.76;92.35;101207.91;4991345;28;20479;-73
2021/04/12 06:50:54;;;;;;;0.03;0.03;;;;;;;1.84;92.28;101204.03;4990074;28;20515;-74
2021/04/12 06:53:38;;;;;;;0.20;0.20;;;;;;;1.88;91.83;101202.53;4991740;28;20193;-72
2021/04/12 06:56:18;;;;;;;0.90;0.90;;;;;;;1.98;91.65;101215.41;4991252;28;20498;-73
2021/04/12 06:59:34;;;;;;;0.33;0.33;;;;;;;2.00;91.25;101214.09;4991364;28;20429;-78
2021/04/12 07:02:20;;;;;;;0.03;0.03;;;;;;;2.05;90.78;101225.00;4959654;28;20972;-73
2021/04/12 07:05:11;;;;;;;0.67;0.67;;;;;;;2.05;90.63;101226.88;4990964;28;20448;-73
2021/04/12 07:08:01;;;;;;;0.40;0.40;;;;;;;2.03;90.38;101223.63;4993388;28;20507;-73
2021/04/12 07:10:54;;;;;;;0.10;0.10;;;;;;;2.09;90.64;101238.81;4995170;28;20770;-72
2021/04/12 07:13:37;;;;;;;0.83;0.33;;;;;;;2.15;90.41;101242.44;4994765;28;20416;-73
2021/04/12 07:16:36;;;;;;;1.87;1.67;;;;;;;2.17;89.91;101238.47;4994856;28;20747;-73
2021/04/12 07:19:34;;;;;;;1.70;1.70;;;;;;;2.19;89.35;101241.75;4993431;28;20843;-73
2021/04/12 07:22:17;;;;;;;1.47;1.37;;;;;;;2.27;88.77;101245.94;4994451;28;20197;-73
2021/04/12 07:25:20;;;;;;;0.13;0.07;;;;;;;2.43;88.73;101244.41;4994654;28;20405;-74
2021/04/12 07:28:20;;;;;;;0.63;0.63;;;;;;;2.54;88.17;101244.38;4994583;28;20415;-75
2021/04/12 07:31:07;;;;;;;0.60;0.60;;;;;;;2.75;88.54;101252.88;4994538;28;20475;-73
2021/04/12 07:33:49;;;;;;;1.60;1.60;;;;;;;2.86;86.90;101250.13;4994238;28;20490;-73
2021/04/12 07:36:23;;;;;;;0.00;0.00;;;;;;;2.93;87.05;101252.72;4994562;28;20483;-74
2021/04/12 07:39:26;;;;;;;0.30;0.30;;;;;;;2.98;86.32;101253.63;4994284;28;20416;-73
2021/04/12 07:42:19;;;;;;;0.50;0.50;;;;;;;3.03;86.06;101249.38;4993990;28;20435;-84
2021/04/12 07:45:06;;;;;;;0.40;0.40;;;;;;;3.18;86.33;101247.81;4993287;28;20583;-77
2021/04/12 07:48:00;;;;;;;0.63;0.63;;;;;;;3.36;85.93;101249.47;4994114;28;20432;-83
2021/04/12 07:51:03;;;;;;;0.10;0.07;;;;;;;3.37;85.76;101251.09;4994078;28;20424;-85
2021/04/12 07:54:05;;;;;;;0.60;0.60;;;;;;;3.34;85.47;101251.59;4993899;28;20443;-82
2021/04/12 07:57:11;;;;;;;0.63;0.63;;;;;;;3.28;84.66;101256.06;4993993;28;20192;-78
2021/04/12 08:00:14;;;;;;;0.37;0.37;;;;;;;3.37;85.07;101261.06;4993759;28;20205;-73
2021/04/12 08:03:06;;;;;;;1.17;1.17;;;;;;;3.46;85.02;101271.22;4993605;28;20452;-73
2021/04/12 08:05:44;;;;;;;0.20;0.20;;;;;;;3.64;84.13;101267.50;4993979;28;20181;-75
2021/04/12 08:08:32;;;;;;;0.20;0.20;;;;;;;3.78;83.80;101262.59;4994184;28;20424;-73
2021/04/12 08:11:43;;;;;;;0.03;0.03;;;;;;;3.88;83.83;101268.94;4993913;28;20220;-73
2021/04/12 08:14:17;;;;;;;0.43;0.43;;;;;;;3.93;82.46;101270.94;4993258;28;20197;-74
2021/04/12 08:17:16;;;;;;;0.77;0.77;;;;;;;4.06;81.99;101276.00;4993736;28;20177;-73
2021/04/12 08:20:33;;;;;;;0.10;0.00;;;;;;;4.11;80.79;101280.66;4993733;28;20653;-73
2021/04/12 08:23:26;;;;;;;0.63;0.30;;;;;;;4.32;79.92;101273.66;4981377;28;20425;-75
2021/04/12 08:26:03;;;;;;;0.00;0.00;;;;;;;4.41;79.85;101272.16;4993595;28;20169;-73
2021/04/12 08:28:47;;;;;;;2.33;2.23;;;;;;;4.44;78.63;101271.66;4993721;28;20263;-74
2021/04/12 08:31:33;;;;;;;0.37;0.37;;;;;;;4.54;77.99;101268.28;4993455;28;20289;-73
2021/04/12 08:34:36;;;;;;;0.43;0.43;;;;;;;4.47;78.25;101282.78;4993376;28;20281;-74
2021/04/12 08:37:26;;;;;;;1.80;0.90;;;;;;;4.48;76.50;101281.75;4991996;28;20173;-73
2021/04/12 08:40:10;;;;;;;0.63;0.47;;;;;;;4.57;75.38;101292.13;4992783;28;20244;-73
2021/04/12 08:42:57;;;;;;;0.33;0.33;;;;;;;4.60;74.74;101297.03;4992632;28;20177;-73
2021/04/12 08:45:59;;;;;;;1.70;0.60;;;;;;;4.55;75.68;101299.69;4992802;28;20180;-74
2021/04/12 08:49:00;;;;;;;0.00;0.00;;;;;;;4.86;75.52;101288.16;4991496;28;20192;-73
2021/04/12 08:52:00;;;;;;;0.63;0.63;;;;;;;4.97;72.77;101289.94;4988672;28;20197;-73
2021/04/12 08:54:45;;;;;;;0.00;0.00;;;;;;;5.02;73.09;101300.81;4980656;28;20181;-73
2021/04/12 08:57:36;;;;;;;0.60;0.53;;;;;;;5.02;72.29;101302.69;4992653;28;20224;-73
2021/04/12 09:00:13;;;;;;;0.00;0.00;;;;;;;4.99;71.66;101298.63;4992969;28;20726;-73
2021/04/12 09:03:06;;;;;;;5.67;0.73;;;;;;;4.90;73.00;101315.53;4992721;28;20193;-73
2021/04/12 09:05:50;;;;;;;0.70;0.30;;;;;;;4.94;74.38;101308.56;4993021;28;20176;-72
2021/04/12 09:08:29;;;;;;;0.70;0.70;;;;;;;4.94;74.33;101305.88;4992943;28;20247;-73
2021/04/12 09:11:23;;;;;;;0.93;0.73;;;;;;;4.88;74.57;101318.50;4992822;28;20533;-73
2021/04/12 09:14:16;;;;;;;0.27;0.27;;;;;;;4.77;74.17;101314.88;4992522;28;20188;-73
2021/04/12 09:17:05;;;;;;;0.70;0.70;;;;;;;4.93;74.74;101317.78;4992670;28;20515;-73
2021/04/12 09:20:07;;;;;;;0.63;0.57;;;;;;;5.29;71.98;101308.16;4992461;28;20240;-73
2021/04/12 09:22:53;;;;;;;1.10;1.10;;;;;;;5.58;69.87;101308.72;4992854;28;20177;-72
2021/04/12 09:25:19;;;;;;;0.00;0.00;;;;;;;5.72;69.49;101301.78;4992631;28;20172;-74
2021/04/12 09:28:26;;;;;;;0.10;0.10;;;;;;;5.56;66.27;101305.44;5007573;28;20177;-72
2021/04/12 09:31:16;;;;;;;0.10;0.10;;;;;;;5.37;68.02;101308.53;4989147;28;20189;-74
2021/04/12 09:34:18;;;;;;;0.00;0.00;;;;;;;5.25;70.06;101313.25;4989590;28;20219;-73
2021/04/12 09:37:21;;;;;;;0.10;0.03;;;;;;;5.16;68.15;101322.91;4991944;28;20204;-73
2021/04/12 09:40:02;;;;;;;0.20;0.20;;;;;;;5.16;68.78;101324.78;4991114;28;20266;-75
2021/04/12 09:43:05;;;;;;;0.27;0.27;;;;;;;5.12;67.80;101335.31;4992027;28;20237;-73
2021/04/12 09:46:08;;;;;;;0.30;0.30;;;;;;;4.98;67.60;101337.59;4992270;28;20165;-72
2021/04/12 09:48:42;;;;;;;0.33;0.33;;;;;;;5.04;64.99;101331.16;4992097;28;20451;-73
2021/04/12 09:51:32;;;;;;;0.00;0.00;;;;;;;5.32;62.02;101332.84;4992059;28;20614;-73
2021/04/12 09:54:31;;;;;;;0.50;0.40;;;;;;;5.69;63.09;101334.84;4991229;28;20691;-73
2021/04/12 09:57:24;;;;;;;0.20;0.20;;;;;;;6.10;61.01;101332.53;4991495;28;20268;-73
2021/04/12 10:00:17;;;;;;;0.17;0.17;;;;;;;6.28;61.80;101332.09;4991533;28;20205;-72
2021/04/12 10:03:20;;;;;;;0.10;0.10;;;;;;;6.19;61.16;101341.78;4991201;28;20181;-73
2021/04/12 10:06:17;;;;;;;0.53;0.50;;;;;;;5.92;61.07;101341.84;5006396;28;20184;-73
2021/04/12 10:09:01;;;;;;;1.23;0.60;;;;;;;5.81;62.29;101351.78;4991449;28;20264;-74
2021/04/12 10:11:39;;;;;;;0.20;0.20;;;;;;;5.76;63.59;101350.88;4991256;28;20172;-73
2021/04/12 10:14:23;;;;;;;0.73;0.50;;;;;;;5.72;65.01;101353.31;4991277;28;20651;-73
2021/04/12 10:17:02;;;;;;;0.87;0.50;;;;;;;5.61;66.55;101351.56;4991351;28;20230;-73
2021/04/12 10:19:46;;;;;;;0.20;0.20;;;;;;;5.56;64.50;101359.66;4991075;28;20633;-73
2021/04/12 10:22:17;;;;;;;0.93;0.60;;;;;;;5.57;63.37;101364.81;4991422;28;20208;-73
2021/04/12 10:25:02;;;;;;;6.60;0.33;;;;;;;5.56;62.48;101370.50;4991061;28;20177;-73
2021/04/12 10:27:39;;;;;;;10.83;0.50;;;;;;;5.58;63.14;101352.06;4991242;28;20626;-73
2021/04/12 10:30:17;;;;;;;0.17;0.17;;;;;;;5.75;61.74;101347.38;4991218;28;20181;-73
2021/04/12 10:32:50;;;;;;;0.40;0.40;;;;;;;6.19;62.43;101348.03;4990705;28;20184;-73
2021/04/12 10:35:21;;;;;;;0.20;0.20;;;;;;;6.49;60.94;101343.91;4991052;28;20213;-73
2021/04/12 10:38:24;;;;;;;0.10;0.10;;;;;;;6.77;61.95;101348.94;4991046;28;20178;-73
2021/04/12 10:41:06;;;;;;;0.30;0.30;;;;;;;6.64;58.86;101349.41;5005909;28;20333;-72
2021/04/12 10:43:37;;;;;;;2.33;0.43;;;;;;;6.59;60.28;101351.31;4992225;28;20173;-73
2021/04/12 10:46:38;;;;;;;0.10;0.10;;;;;;;6.71;61.84;101341.88;4995218;28;20292;-73
2021/04/12 10:49:22;;;;;;;0.43;0.40;;;;;;;6.62;63.29;101351.59;4994532;28;20687;-73
2021/04/12 10:52:25;;;;;;;0.30;0.30;;;;;;;6.85;61.16;101345.75;4994799;28;20183;-73
2021/04/12 10:55:06;;;;;;;0.77;0.77;;;;;;;6.97;58.69;101342.81;4994893;28;20632;-73
2021/04/12 10:57:41;;;;;;;2.80;0.77;;;;;;;6.84;57.32;101346.03;4994918;28;20212;-73
2021/04/12 11:00:28;;;;;;;0.10;0.10;;;;;;;6.85;58.95;101348.47;5009674;28;20328;-72
2021/04/12 11:03:15;;;;;;;0.00;0.00;;;;;;;7.06;62.53;101345.81;4994499;28;20183;-75
2021/04/12 11:05:45;;;;;;;1.20;1.03;;;;;;;7.11;60.73;101343.16;4994734;28;20621;-73
2021/04/12 11:08:33;;;;;;;0.00;0.00;;;;;;;7.18;58.53;101343.69;4994637;28;20621;-72
2021/04/12 11:11:15;;;;;;;0.73;0.07;;;;;;;7.31;58.21;101345.13;4994592;28;20185;-73
2021/04/12 11:13:47;;;;;;;2.00;0.20;;;;;;;7.51;58.15;101337.00;5009437;28;20540;-73
2021/04/12 11:16:21;;;;;;;2.03;0.57;;;;;;;7.58;56.61;101348.44;4994631;28;20173;-74
2021/04/12 11:19:19;;;;;;;0.37;0.37;;;;;;;7.60;53.29;101331.84;4994372;28;20204;-72
2021/04/12 11:22:06;;;;;;;0.17;0.17;;;;;;;7.45;54.79;101338.91;4994666;28;20279;-72
2021/04/12 11:24:50;;;;;;;0.53;0.53;;;;;;;7.22;53.23;101338.53;4994323;28;20208;-72
2021/04/12 11:27:43;;;;;;;0.00;0.00;;;;;;;7.03;54.62;101349.91;4994320;28;20208;-73
2021/04/12 11:30:17;;;;;;;0.00;0.00;;;;;;;6.76;55.22;101343.78;4994372;28;20189;-73
2021/04/12 11:32:54;;;;;;;0.00;0.00;;;;;;;6.94;56.26;101343.31;4993875;28;20183;-73
2021/04/12 11:35:31;;;;;;;0.10;0.10;;;;;;;7.14;57.84;101348.88;4993923;28;20629;-72
2021/04/12 11:38:12;;;;;;;0.20;0.20;;;;;;;7.56;57.71;101350.63;4994123;28;20173;-74
2021/04/12 11:40:51;;;;;;;0.27;0.20;;;;;;;7.79;57.44;101354.72;4994123;28;20209;-73
2021/04/12 11:43:24;;;;;;;0.10;0.10;;;;;;;8.00;54.39;101350.94;4993873;28;20197;-73
2021/04/12 11:46:25;;;;;;;0.00;0.00;;;;;;;7.91;53.90;101346.31;4993854;28;20176;-72
2021/04/12 11:48:55;;;;;;;0.60;0.30;;;;;;;7.81;53.74;101349.00;4993896;28;20177;-73
2021/04/12 11:51:43;;;;;;;1.10;0.30;;;;;;;7.70;52.40;101351.72;4993837;28;20580;-73
2021/04/12 11:54:10;;;;;;;0.10;0.10;;;;;;;7.73;54.51;101347.66;4992027;28;20212;-73
2021/04/12 11:56:52;;;;;;;0.97;0.40;;;;;;;7.93;52.87;101355.00;4993971;28;20173;-73
2021/04/12 11:59:47;;;;;;;0.20;0.20;;;;;;;7.84;54.16;101351.22;4993604;28;20173;-73
2021/04/12 12:02:47;;;;;;;0.43;0.10;;;;;;;7.91;51.94;101354.47;4993367;28;20774;-73
2021/04/12 12:05:20;;;;;;;0.37;0.20;;;;;;;8.07;54.69;101354.19;5008685;28;20185;-73
2021/04/12 12:07:53;;;;;;;0.20;0.20;;;;;;;8.33;56.19;101360.44;4993463;28;20177;-73
2021/04/12 12:10:25;;;;;;;1.80;0.43;;;;;;;8.00;52.59;101355.56;5008613;28;20604;-73
2021/04/12 12:12:54;;;;;;;0.20;0.13;;;;;;;7.87;51.40;101347.94;4993054;28;20507;-73
2021/04/12 12:15:28;;;;;;;0.20;0.20;;;;;;;7.73;51.64;101353.91;4993587;28;20185;-73
2021/04/12 12:18:08;;;;;;;0.20;0.20;;;;;;;7.84;50.65;101351.22;4993438;28;20541;-73
2021/04/12 12:20:52;;;;;;;0.00;0.00;;;;;;;7.92;52.50;101356.09;4993236;28;20207;-73
2021/04/12 12:23:38;;;;;;;0.10;0.10;;;;;;;7.99;53.12;101362.09;4992964;28;20177;-73
2021/04/12 12:26:11;;;;;;;0.47;0.40;;;;;;;7.92;48.96;101358.81;5008188;28;20185;-73
2021/04/12 12:28:46;;;;;;;0.00;0.00;;;;;;;8.20;50.88;101357.47;4993245;28;20174;-73
2021/04/12 12:31:42;;;;;;;3.97;0.47;;;;;;;8.27;50.16;101353.41;4991821;28;20231;-73
2021/04/12 12:34:33;;;;;;;0.10;0.10;;;;;;;8.11;50.83;101356.41;4991382;28;20181;-73
2021/04/12 12:36:58;;;;;;;0.10;0.10;;;;;;;8.40;47.38;101354.78;4984049;28;20189;-73
2021/04/12 12:39:36;;;;;;;0.00;0.00;;;;;;;8.73;48.21;101358.78;4992601;28;20259;-73
2021/04/12 12:42:31;;;;;;;0.03;0.03;;;;;;;8.53;55.13;101369.72;4985116;28;20188;-78
2021/04/12 12:45:05;;;;;;;0.10;0.10;;;;;;;8.13;55.50;101365.09;4972579;28;20645;-73
2021/04/12 12:47:32;;;;;;;0.17;0.17;;;;;;;7.90;58.72;101371.88;4973548;28;20181;-72
2021/04/12 12:50:01;;;;;;;0.43;0.20;;;;;;;7.64;56.87;101360.13;4973654;28;20205;-72
2021/04/12 12:52:37;;;;;;;0.47;0.47;;;;;;;7.31;56.15;101369.56;4973533;28;20260;-73
2021/04/12 12:55:11;;;;;;;0.00;0.00;;;;;;;6.97;54.26;101375.41;4973749;28;20221;-72
2021/04/12 12:57:40;;;;;;;0.07;0.07;;;;;;;6.89;56.86;101375.91;4975775;28;20188;-72
2021/04/12 13:00:21;;;;;;;0.30;0.00;;;;;;;6.45;59.76;101384.34;4974089;28;20707;-73